Αρχική σελίδα
METAR-TAF:

METAR-TAF

Αεροδρόμια :

Colville Lake, Βορειοδυτικά Εδάφη, Καναδάς

γεωγραφικό πλάτος: 67-01-16N, γεωγραφικό μήκος: 126-07-43W, υψόμετρο: 274 μ

Παρών καιρός

Η αναφορά έγινε 19 λεπτά πριν, στις 12:00 UTC
Άνεμος 5 kt από
Θερμοκρασία -27°C
Υγρασία 83%
Πίεση 1006 hPa
Ορατότητα: 14.5 χλμ
Διάσπαρτα νέφη σε ύψος 25000 πόδια

METAR: CYVL 161200Z AUTO 32005KT 9SM SCT250 M27/M29 A2972 RMK SLP109

Χρόνος: 05:19 (12:19 UTC)


TAF: λείπει

Μετεωρολογικές αναφορές και προγνώσεις για περισσότερα από 4000 αεροδρόμια (δελτία METAR και TAF).

Οι διαθέσιμοι σταθμοί απεικονίζονται στο χάρτη με κίτρινες και κόκκινες κουκκίδες.

Μετακινήστε το ποντίκι πάνω από τις κουκκίδες για να δείτε το όνομα του σταθμού.

Στη συνέχεια, κάντε κλικ για να δείτε τις μετεωρολογικές αναφορές και τις προγνώσεις καιρού.

Για να αλλάξετε το χάρτη: κάντε κλικ στα πράσινα κουμπιά με τον μαύρο σταυρό για να ζουμάρετε, στο πράσινο κουμπί με την παύλα για να αφαιρέσετε το ζουμ ή στα πράσινα βέλη για να αντιπαραβάλλετε χάρτες.


METAR-TAF: